Accueil
METAR-TAF:

METAR-TAF

Aéroports :

Aérodrome de Tamatave

Tamatave, Madagascar

latitude: 18-07S, longitude: 049-24E, altitude: 5 m

Observation

Le bulletin a été fait il y a 23 minutes, à 16:00 UTC
Vent 8 kt de ouest/sud-ouest
Température 22°C
Humidité 88%
Pression 1019 hPa
Visibilité 10 km ou plus
Nuages épars à une hauteur de 1700 ft

METAR: FMMT 061600Z 24008KT 9999 SCT017 22/20 Q1019

Heure: 19:23 (16:23 UTC)

Prévision

Le bulletin a été fait il y a 5 heures et 23 minutes, à 11:00 UTC
Prévision valable du 06 à 12 UTC au 07 à 12 UTC
Vent 15 kt de sud
Visibilité 10 km ou plus
Nuages épars à une hauteur de 1700 ft

TAF: FMMT 061100Z 0612/0712 18015KT 9999 SCT017

Observations et prévisions météorologiques de plus de 4000 aéroports (messages METAR et TAF).

Les stations disponibles sont représentées par des disques jaunes et rouges sur la carte.

Passer la souris dessus pour voir le nom de la station.

Cliquer dessus pour voir les observations et prévisions météorologiques.

Pour changer de carte: cliquez sur les boutons verts avec une croix noire pour zoomer, sur le bouton vert avec un tiret pour effectuer un zoom arrière, ou sur les flèches vertes pour les cartes adjacentes.


METAR-TAF: